Time;durP1;ratioP1;P1;durP2;ratioP2;P2;SDS_P1;SDS_P2;PMS_P1;PMS_P2;Temp;Humidity;BMP_temperature;BMP_pressure;BME280_temperature;BME280_humidity;BME280_pressure;Samples;Min_cycle;Max_cycle;Signal;HPM_P1;HPM_P2
2022/09/27 00:00:31;;;;;;;9.45;8.75;;;;;;;16.44;76.24;94005.22;4966895;28;20230;-67
2022/09/27 00:02:57;;;;;;;9.90;9.02;;;;;;;16.44;75.79;94012.34;4983590;28;20192;-67
2022/09/27 00:05:23;;;;;;;10.15;9.30;;;;;;;16.21;76.96;94023.50;4968982;28;20188;-67
2022/09/27 00:07:48;;;;;;;10.52;9.57;;;;;;;16.37;76.03;94030.16;4969868;28;20203;-67
2022/09/27 00:10:13;;;;;;;10.77;9.65;;;;;;;16.36;75.40;94007.28;4968784;28;20203;-67
2022/09/27 00:12:39;;;;;;;8.75;8.15;;;;;;;16.33;76.13;94005.88;4971974;28;20188;-67
2022/09/27 00:15:06;;;;;;;10.18;9.18;;;;;;;16.36;76.49;94004.63;4967743;28;20241;-67
2022/09/27 00:17:32;;;;;;;10.93;9.93;;;;;;;16.11;77.74;94021.28;4975035;28;20186;-67
2022/09/27 00:19:59;;;;;;;9.07;8.25;;;;;;;16.16;76.62;94010.06;4970748;28;20183;-67
2022/09/27 00:22:26;;;;;;;9.63;8.82;;;;;;;16.29;75.58;94032.03;4971782;28;20353;-67
2022/09/27 00:24:52;;;;;;;10.52;9.23;;;;;;;16.27;75.73;94035.91;4969650;28;20191;-67
2022/09/27 00:27:18;;;;;;;10.95;9.82;;;;;;;16.21;76.42;94026.97;4969547;28;20176;-67
2022/09/27 00:29:44;;;;;;;10.25;9.32;;;;;;;16.27;76.53;94036.72;4981165;28;20180;-67
2022/09/27 00:32:10;;;;;;;9.20;8.45;;;;;;;16.09;76.51;94021.50;4972354;28;20183;-66
2022/09/27 00:34:36;;;;;;;9.73;8.77;;;;;;;16.05;75.62;94030.91;4969697;28;20183;-66
2022/09/27 00:37:02;;;;;;;9.63;8.73;;;;;;;15.89;77.38;94023.41;4970632;28;20186;-67
2022/09/27 00:39:28;;;;;;;9.05;8.30;;;;;;;15.94;77.86;94014.84;4968707;28;20190;-68
2022/09/27 00:41:53;;;;;;;9.80;9.00;;;;;;;16.03;77.21;94011.72;4965062;28;20267;-68
2022/09/27 00:44:25;;;;;;;9.43;8.63;;;;;;;15.99;78.20;94005.22;4984662;28;20180;-68
2022/09/27 00:47:04;;;;;;;10.10;9.30;;;;;;;15.89;79.55;94007.50;4974190;28;20250;-67
2022/09/27 00:49:56;;;;;;;10.77;9.70;;;;;;;16.03;79.76;94018.88;4971987;28;20190;-67
2022/09/27 00:52:35;;;;;;;10.32;9.43;;;;;;;16.07;79.87;94022.75;4872775;29;20238;-66
2022/09/27 00:55:12;;;;;;;10.02;9.13;;;;;;;16.00;79.63;94016.63;4876271;29;20222;-68
2022/09/27 00:57:39;;;;;;;10.98;9.07;;;;;;;15.93;79.93;94007.88;4872620;29;20270;-68
2022/09/27 01:00:08;;;;;;;10.88;9.88;;;;;;;16.01;81.17;94028.88;4880367;29;20289;-69
2022/09/27 01:02:37;;;;;;;9.40;8.60;;;;;;;15.87;79.59;94026.25;4879645;29;20226;-68
2022/09/27 01:05:05;;;;;;;9.32;8.52;;;;;;;15.90;79.42;93982.59;4885229;29;20205;-68
2022/09/27 01:07:30;;;;;;;10.85;9.85;;;;;;;15.94;79.68;94001.56;4874956;29;20203;-68
2022/09/27 01:09:57;;;;;;;9.68;8.88;;;;;;;16.03;78.69;94011.72;4882025;29;20198;-67
2022/09/27 01:12:41;;;;;;;9.70;8.80;;;;;;;15.90;78.01;93995.84;4879900;29;20281;-68
2022/09/27 01:15:24;;;;;;;10.05;9.20;;;;;;;15.91;78.83;93988.75;4880685;29;20228;-68
2022/09/27 01:18:05;;;;;;;10.02;9.13;;;;;;;15.69;78.51;93999.63;4896071;29;20190;-68
2022/09/27 01:21:07;;;;;;;9.85;9.05;;;;;;;15.77;79.19;93994.09;4897082;29;20225;-68
2022/09/27 01:24:11;;;;;;;10.25;9.38;;;;;;;15.74;80.66;93998.97;4878561;29;20198;-68
2022/09/27 01:26:46;;;;;;;9.70;8.70;;;;;;;15.47;79.24;93996.34;4826541;29;20204;-68
2022/09/27 01:29:27;;;;;;;11.60;9.57;;;;;;;15.62;79.80;93969.63;4874251;29;20233;-69
2022/09/27 01:32:13;;;;;;;10.75;9.65;;;;;;;15.73;80.69;93982.25;4896946;29;20209;-67
2022/09/27 01:34:43;;;;;;;10.35;9.23;;;;;;;15.73;80.60;93974.31;4899065;29;20358;-67
2022/09/27 01:37:46;;;;;;;10.57;9.65;;;;;;;15.83;80.12;93982.63;4898586;29;20220;-68
2022/09/27 01:40:21;;;;;;;10.73;9.63;;;;;;;15.62;79.75;94004.06;4914437;29;20280;-67
2022/09/27 01:42:54;;;;;;;10.70;9.68;;;;;;;15.73;79.13;93979.63;4929658;29;20333;-67
2022/09/27 01:45:29;;;;;;;13.40;9.93;;;;;;;15.82;79.93;93988.97;4904341;29;20194;-67
2022/09/27 01:48:01;;;;;;;10.38;9.27;;;;;;;15.76;80.69;93981.84;4914124;29;20193;-67
2022/09/27 01:50:38;;;;;;;10.52;9.52;;;;;;;15.81;80.74;93981.22;4898361;29;20191;-66
2022/09/27 01:53:22;;;;;;;10.35;9.20;;;;;;;15.75;80.21;94006.72;4898454;29;20190;-66
2022/09/27 01:55:50;;;;;;;9.10;8.30;;;;;;;15.62;79.99;93975.75;4914535;29;20194;-68
2022/09/27 01:58:26;;;;;;;10.82;9.07;;;;;;;15.56;80.70;93994.31;4892486;29;20199;-68
2022/09/27 02:00:54;;;;;;;9.65;8.75;;;;;;;15.70;79.36;93990.63;4913873;29;20210;-68
2022/09/27 02:03:28;;;;;;;9.15;8.43;;;;;;;15.81;78.19;93976.72;4918396;28;20188;-68
2022/09/27 02:06:00;;;;;;;10.48;9.45;;;;;;;15.67;78.69;93977.78;4972434;28;20195;-67
2022/09/27 02:08:35;;;;;;;11.00;9.90;;;;;;;15.55;79.69;93966.19;4966977;28;20276;-68
2022/09/27 02:11:05;;;;;;;10.80;9.82;;;;;;;15.59;80.26;93954.16;4969250;28;20168;-68
2022/09/27 02:13:43;;;;;;;10.77;9.77;;;;;;;15.56;81.08;93968.63;4964837;28;20212;-68
2022/09/27 02:16:18;;;;;;;10.75;9.82;;;;;;;15.71;80.25;93959.63;4978601;28;20180;-68
2022/09/27 02:19:02;;;;;;;10.70;9.70;;;;;;;15.64;80.26;93962.28;4978554;28;20235;-69
2022/09/27 02:21:56;;;;;;;9.82;9.02;;;;;;;15.53;79.72;93929.31;4976791;28;20204;-69
2022/09/27 02:24:46;;;;;;;10.20;9.30;;;;;;;15.59;80.04;93922.34;4963173;28;20223;-67
2022/09/27 02:27:20;;;;;;;10.63;9.63;;;;;;;15.65;81.04;93929.47;4964078;28;20196;-67
2022/09/27 02:29:52;;;;;;;10.27;9.38;;;;;;;15.73;80.27;93939.06;4964292;28;20284;-67
2022/09/27 02:32:18;;;;;;;10.95;9.38;;;;;;;15.70;79.49;93921.72;4962692;28;20180;-68
2022/09/27 02:34:45;;;;;;;11.10;9.70;;;;;;;15.55;79.97;93886.69;4963062;28;20236;-69
2022/09/27 02:37:11;;;;;;;10.02;9.23;;;;;;;15.56;81.22;93877.75;4969280;28;20223;-69
2022/09/27 02:39:37;;;;;;;10.63;9.63;;;;;;;15.49;81.90;93885.69;4969171;28;20199;-69
2022/09/27 02:42:04;;;;;;;10.57;9.77;;;;;;;15.54;81.95;93879.78;4975822;28;20227;-68
2022/09/27 02:44:30;;;;;;;10.60;9.57;;;;;;;15.40;81.77;93895.72;4972520;28;20195;-68
2022/09/27 02:47:33;;;;;;;10.05;9.25;;;;;;;15.59;79.77;93909.91;4974502;28;20245;-68
2022/09/27 02:50:43;;;;;;;10.75;9.88;;;;;;;15.58;79.69;93910.13;4965735;28;20191;-69
2022/09/27 02:53:46;;;;;;;10.40;9.52;;;;;;;15.51;79.67;93896.09;4894092;29;20254;-68
2022/09/27 02:56:26;;;;;;;10.30;9.40;;;;;;;15.42;80.21;93904.28;4899276;29;20194;-68
2022/09/27 02:59:33;;;;;;;11.57;10.57;;;;;;;15.48;80.89;93923.81;4892724;29;20205;-68
2022/09/27 03:02:30;;;;;;;10.48;9.57;;;;;;;15.47;80.57;93938.06;4839508;29;20794;-67
2022/09/27 03:05:00;;;;;;;10.25;9.45;;;;;;;15.43;80.67;93919.13;4824975;29;20295;-66
2022/09/27 03:07:26;;;;;;;11.35;10.27;;;;;;;15.37;81.63;93882.91;4823126;29;20205;-66
2022/09/27 03:09:53;;;;;;;10.90;10.00;;;;;;;15.30;82.45;93874.16;4824770;29;20284;-66
2022/09/27 03:12:24;;;;;;;11.57;10.57;;;;;;;15.27;82.72;93866.63;4838133;29;20189;-66
2022/09/27 03:14:51;;;;;;;12.02;10.90;;;;;;;15.30;82.09;93858.25;4824548;29;20216;-67
2022/09/27 03:17:16;;;;;;;11.55;10.55;;;;;;;15.36;82.57;93844.16;4823234;29;20300;-67
2022/09/27 03:19:41;;;;;;;11.43;10.43;;;;;;;15.24;82.60;93842.41;4826530;29;20308;-67
2022/09/27 03:22:07;;;;;;;11.60;10.50;;;;;;;15.27;82.19;93856.03;4822824;29;20207;-67
2022/09/27 03:24:33;;;;;;;11.07;10.18;;;;;;;15.34;81.49;93843.59;4841363;29;20294;-66
2022/09/27 03:26:58;;;;;;;12.27;11.18;;;;;;;15.12;82.20;93835.09;4839184;29;20197;-65
2022/09/27 03:29:24;;;;;;;11.48;10.57;;;;;;;15.21;82.62;93844.44;4840674;29;20199;-66
2022/09/27 03:31:49;;;;;;;11.55;10.60;;;;;;;15.21;82.12;93841.78;4876588;29;20230;-66
2022/09/27 03:34:15;;;;;;;11.35;10.45;;;;;;;15.15;82.00;93844.44;4873966;29;20252;-65
2022/09/27 03:36:40;;;;;;;11.57;10.70;;;;;;;15.20;82.01;93842.78;4899906;29;20247;-66
2022/09/27 03:39:06;;;;;;;11.40;10.40;;;;;;;15.15;82.17;93845.25;4910259;29;20193;-66
2022/09/27 03:41:31;;;;;;;11.80;10.77;;;;;;;15.19;82.49;93846.47;4933313;28;20636;-65
2022/09/27 03:43:58;;;;;;;12.32;11.23;;;;;;;15.34;81.47;93848.88;4973588;28;20191;-66
2022/09/27 03:46:24;;;;;;;11.82;10.77;;;;;;;15.29;80.82;93831.97;4963985;28;20195;-66
2022/09/27 03:48:50;;;;;;;12.10;11.05;;;;;;;15.31;80.86;93836.03;4968641;28;20180;-66
2022/09/27 03:51:15;;;;;;;11.30;10.30;;;;;;;15.34;80.85;93833.00;4967835;28;20310;-66
2022/09/27 03:53:41;;;;;;;11.55;10.57;;;;;;;15.25;81.60;93834.22;4973919;28;20204;-66
2022/09/27 03:56:07;;;;;;;12.57;11.57;;;;;;;15.30;81.72;93852.16;4966804;28;20221;-66
2022/09/27 03:58:33;;;;;;;13.52;12.43;;;;;;;15.17;82.11;93842.41;4975879;28;20190;-66
2022/09/27 04:00:59;;;;;;;13.65;12.55;;;;;;;15.13;82.50;93849.13;4971686;28;20207;-66
2022/09/27 04:03:25;;;;;;;14.02;12.63;;;;;;;15.25;82.33;93851.97;4973539;28;20179;-66
2022/09/27 04:05:52;;;;;;;15.38;14.18;;;;;;;15.27;81.65;93847.28;4969329;28;20290;-65
2022/09/27 04:08:17;;;;;;;14.85;13.65;;;;;;;15.30;81.51;93847.66;4974309;28;20194;-65
2022/09/27 04:10:43;;;;;;;15.50;14.20;;;;;;;15.22;82.43;93839.94;4971908;28;20172;-65
2022/09/27 04:13:08;;;;;;;15.38;13.95;;;;;;;15.22;82.38;93842.59;4981427;28;20210;-65
2022/09/27 04:15:34;;;;;;;16.05;14.65;;;;;;;15.22;82.58;93843.41;4970180;28;20219;-65
2022/09/27 04:18:00;;;;;;;16.70;15.32;;;;;;;15.22;82.47;93834.66;4974799;28;20242;-66
2022/09/27 04:20:25;;;;;;;15.55;14.15;;;;;;;15.28;82.00;93838.31;4974570;28;20203;-65
2022/09/27 04:22:51;;;;;;;16.38;15.05;;;;;;;15.30;82.32;93826.47;4970396;28;20183;-65
2022/09/27 04:25:16;;;;;;;16.63;15.13;;;;;;;15.35;82.36;93833.81;4967117;28;20192;-65
2022/09/27 04:27:47;;;;;;;15.43;14.02;;;;;;;15.29;82.00;93827.50;4971475;28;20189;-65
2022/09/27 04:30:14;;;;;;;16.05;14.70;;;;;;;15.32;82.04;93842.16;4970716;28;20180;-65
2022/09/27 04:32:41;;;;;;;16.88;15.48;;;;;;;15.39;81.71;93837.63;4956279;28;20194;-65
2022/09/27 04:37:52;;;;;;;17.13;15.73;;;;;;;15.38;81.96;93830.72;4985884;28;20249;-65
2022/09/27 04:40:18;;;;;;;17.42;15.93;;;;;;;15.28;82.38;93841.75;4970304;28;20204;-64
2022/09/27 04:42:44;;;;;;;17.40;15.98;;;;;;;15.34;82.54;93832.16;4972548;28;20235;-65
2022/09/27 04:45:12;;;;;;;16.10;14.70;;;;;;;15.31;82.54;93817.50;4973751;28;20190;-65
2022/09/27 04:47:45;;;;;;;17.20;15.73;;;;;;;15.29;82.54;93821.38;4980251;28;20282;-66
2022/09/27 04:50:12;;;;;;;17.33;15.77;;;;;;;15.35;83.28;93852.34;4967673;28;20176;-66
2022/09/27 04:52:39;;;;;;;16.17;14.88;;;;;;;15.38;82.73;93875.75;4971217;28;20194;-64
2022/09/27 04:55:05;;;;;;;17.40;15.85;;;;;;;15.33;82.43;93855.19;4974550;28;20196;-65
2022/09/27 04:57:31;;;;;;;17.05;15.68;;;;;;;15.27;83.33;93852.56;4968567;28;20187;-64
2022/09/27 04:59:57;;;;;;;17.73;15.70;;;;;;;15.30;83.90;93868.84;4969795;28;20203;-64
2022/09/27 05:02:23;;;;;;;17.00;15.43;;;;;;;15.38;83.12;93850.06;4974701;28;20192;-66
2022/09/27 05:04:48;;;;;;;16.20;14.75;;;;;;;15.22;83.17;93850.53;4975969;28;20234;-64
2022/09/27 05:07:14;;;;;;;17.20;15.57;;;;;;;15.31;83.25;93849.28;4971327;28;20208;-65
2022/09/27 05:09:39;;;;;;;15.75;14.18;;;;;;;15.39;82.82;93825.22;4985009;28;20192;-65
2022/09/27 05:12:06;;;;;;;16.63;15.10;;;;;;;15.32;83.07;93840.31;4970366;28;20207;-65
2022/09/27 05:14:32;;;;;;;16.20;14.80;;;;;;;15.44;83.19;93841.28;4955957;28;20254;-63
2022/09/27 05:16:57;;;;;;;15.85;14.55;;;;;;;15.40;83.07;93829.50;4972155;28;20188;-64
2022/09/27 05:19:23;;;;;;;14.68;13.38;;;;;;;15.11;83.58;93817.59;4982611;28;20215;-64
2022/09/27 05:21:49;;;;;;;15.48;14.10;;;;;;;15.25;83.82;93830.78;4988570;28;20203;-65
2022/09/27 05:24:15;;;;;;;16.00;14.70;;;;;;;15.43;83.59;93818.47;4973072;28;20313;-67
2022/09/27 05:26:40;;;;;;;15.10;13.75;;;;;;;15.41;83.76;93843.56;4963762;28;20374;-65
2022/09/27 05:29:06;;;;;;;15.50;14.20;;;;;;;15.56;83.20;93845.94;4965614;28;20223;-66
2022/09/27 05:31:31;;;;;;;15.85;14.50;;;;;;;15.62;83.07;93835.31;4968461;28;20273;-62
2022/09/27 05:33:57;;;;;;;15.63;14.23;;;;;;;15.61;82.95;93809.84;4974054;28;20183;-62
2022/09/27 05:36:22;;;;;;;16.08;14.77;;;;;;;15.72;82.14;93800.44;4971549;28;20191;-63
2022/09/27 05:38:48;;;;;;;14.93;13.73;;;;;;;15.61;82.24;93828.38;4972711;28;20192;-63
2022/09/27 05:41:14;;;;;;;15.95;14.65;;;;;;;15.59;82.30;93830.44;4984925;28;20199;-63
2022/09/27 05:43:40;;;;;;;16.88;15.48;;;;;;;15.47;82.80;93815.41;4975381;28;20230;-64
2022/09/27 05:46:05;;;;;;;16.95;15.55;;;;;;;15.53;83.13;93844.53;4970453;28;20184;-63
2022/09/27 05:48:31;;;;;;;18.02;16.42;;;;;;;15.58;82.81;93841.22;4985739;28;20184;-63
2022/09/27 05:50:56;;;;;;;17.80;16.30;;;;;;;15.39;83.32;93835.81;4974866;28;20238;-63
2022/09/27 05:53:22;;;;;;;19.45;17.75;;;;;;;15.53;83.76;93836.59;4983691;28;20196;-63
2022/09/27 05:55:48;;;;;;;21.15;19.55;;;;;;;15.66;82.67;93841.81;4980435;28;20195;-63
2022/09/27 05:58:15;;;;;;;21.55;19.80;;;;;;;15.59;83.77;93837.56;4970785;28;20258;-63
2022/09/27 06:00:42;;;;;;;21.65;19.85;;;;;;;15.63;83.45;93822.84;4975993;28;20196;-64
2022/09/27 06:03:11;;;;;;;20.42;18.73;;;;;;;15.62;83.01;93831.84;4985628;28;20194;-64
2022/09/27 06:05:38;;;;;;;21.23;19.52;;;;;;;15.70;82.53;93841.41;4975722;28;20300;-63
2022/09/27 06:08:07;;;;;;;20.70;18.80;;;;;;;15.74;82.41;93826.72;4974334;28;20275;-63
2022/09/27 06:10:33;;;;;;;21.27;19.38;;;;;;;15.72;82.91;93831.44;4972899;28;20202;-64
2022/09/27 06:13:04;;;;;;;20.67;18.98;;;;;;;15.56;83.58;93836.16;4981508;28;20203;-64
2022/09/27 06:15:31;;;;;;;21.52;19.73;;;;;;;15.62;83.75;93834.50;4993544;28;20179;-64
2022/09/27 06:17:57;;;;;;;19.95;18.25;;;;;;;15.86;82.81;93841.72;4968615;28;20214;-63
2022/09/27 06:20:23;;;;;;;20.65;19.05;;;;;;;15.90;81.49;93826.19;4974200;28;20287;-64
2022/09/27 06:22:48;;;;;;;21.38;19.52;;;;;;;15.99;82.58;93808.22;4978444;28;20374;-63
2022/09/27 06:25:14;;;;;;;22.65;20.70;;;;;;;16.10;83.15;93834.03;4976307;28;20207;-62
2022/09/27 06:27:39;;;;;;;22.77;20.92;;;;;;;16.19;82.47;93823.97;4972178;28;20187;-63
2022/09/27 06:30:05;;;;;;;21.08;19.17;;;;;;;16.11;82.08;93830.34;4984050;28;20235;-63
2022/09/27 06:32:31;;;;;;;21.60;19.70;;;;;;;16.15;82.27;93834.22;4984678;28;20187;-63
2022/09/27 06:34:57;;;;;;;21.17;19.27;;;;;;;15.90;82.62;93820.91;4970763;28;20398;-65
2022/09/27 06:37:26;;;;;;;21.67;19.50;;;;;;;15.75;83.07;93794.69;4973794;28;20187;-64
2022/09/27 06:39:52;;;;;;;21.13;19.23;;;;;;;15.91;84.05;93827.84;4969717;28;20211;-64
2022/09/27 06:42:19;;;;;;;20.38;18.13;;;;;;;15.98;83.73;93841.03;4971442;28;20235;-63
2022/09/27 06:44:48;;;;;;;19.58;17.70;;;;;;;16.04;83.29;93838.38;4986264;28;20191;-63
2022/09/27 06:47:13;;;;;;;20.27;18.38;;;;;;;16.05;81.89;93828.56;4969673;28;20257;-63
2022/09/27 06:49:39;;;;;;;21.52;19.77;;;;;;;16.01;82.90;93835.31;4971081;28;20199;-63
2022/09/27 06:52:05;;;;;;;21.30;19.25;;;;;;;16.05;83.35;93841.81;4969488;28;20194;-63
2022/09/27 06:54:30;;;;;;;20.27;18.23;;;;;;;16.12;82.42;93824.03;4973891;28;20198;-63
2022/09/27 06:56:56;;;;;;;21.15;19.25;;;;;;;16.02;83.03;93826.34;4975318;28;20194;-64
2022/09/27 07:02:05;;;;;;;22.67;20.65;;;;;;;15.99;84.87;93824.13;4970105;28;20217;-64
2022/09/27 07:04:31;;;;;;;22.25;20.20;;;;;;;15.98;84.65;93825.94;4972564;28;20185;-65
2022/09/27 07:06:57;;;;;;;22.42;20.33;;;;;;;16.03;84.67;93835.91;4976490;28;20238;-65
2022/09/27 07:09:22;;;;;;;22.58;20.23;;;;;;;16.07;83.90;93842.44;4975327;28;20192;-64
2022/09/27 07:11:48;;;;;;;21.67;19.77;;;;;;;15.87;83.42;93834.59;4973777;28;20262;-64
2022/09/27 07:14:13;;;;;;;23.38;21.33;;;;;;;15.83;84.23;93839.50;4973059;28;20196;-64
2022/09/27 07:16:38;;;;;;;22.50;20.42;;;;;;;15.68;85.49;93843.44;4973275;28;20183;-65
2022/09/27 07:19:06;;;;;;;23.50;21.40;;;;;;;15.76;84.96;93843.22;4971199;28;20254;-65
2022/09/27 07:21:32;;;;;;;23.25;21.25;;;;;;;15.93;84.27;93824.97;4972275;28;20302;-65
2022/09/27 07:23:58;;;;;;;24.52;22.40;;;;;;;16.00;83.31;93823.09;4973871;28;20295;-64
2022/09/27 07:26:23;;;;;;;25.58;23.23;;;;;;;15.99;84.21;93830.25;4973957;28;20246;-64
2022/09/27 07:28:49;;;;;;;24.50;22.25;;;;;;;15.86;84.81;93838.28;4975041;28;20218;-64
2022/09/27 07:31:14;;;;;;;27.30;24.85;;;;;;;15.99;84.57;93813.53;4958536;28;20640;-64
2022/09/27 07:33:40;;;;;;;22.60;20.77;;;;;;;16.03;84.38;93835.91;4975372;28;20700;-65
2022/09/27 07:36:07;;;;;;;25.42;23.25;;;;;;;15.92;84.13;93823.34;4959184;28;20211;-64
2022/09/27 07:38:33;;;;;;;20.98;19.20;;;;;;;15.88;84.00;93850.28;4962309;28;20257;-63
2022/09/27 07:40:59;;;;;;;21.23;19.30;;;;;;;15.97;83.72;93836.78;4958634;28;20329;-66
2022/09/27 07:43:25;;;;;;;20.70;19.00;;;;;;;16.07;83.34;93853.84;4967803;28;20236;-64
2022/09/27 07:45:50;;;;;;;19.73;18.02;;;;;;;16.13;83.26;93862.78;4947754;28;20230;-66
2022/09/27 07:48:16;;;;;;;19.52;17.90;;;;;;;16.21;82.52;93867.81;4949681;28;20204;-63
2022/09/27 07:50:42;;;;;;;18.77;17.20;;;;;;;16.20;82.27;93874.16;4953140;28;20200;-62
2022/09/27 07:53:11;;;;;;;19.33;17.65;;;;;;;16.09;82.52;93869.53;4954600;28;20241;-66
2022/09/27 07:55:37;;;;;;;22.17;20.23;;;;;;;16.04;82.99;93867.53;4951806;28;20196;-64
2022/09/27 07:58:09;;;;;;;21.45;19.55;;;;;;;16.05;83.68;93865.69;4953688;28;20258;-65
2022/09/27 08:00:36;;;;;;;20.98;18.92;;;;;;;16.02;83.62;93839.59;4951739;28;20200;-67
2022/09/27 08:03:10;;;;;;;21.08;19.30;;;;;;;15.91;84.58;93859.66;4960719;28;20290;-64
2022/09/27 08:05:35;;;;;;;21.95;20.15;;;;;;;16.07;84.16;93869.75;4962702;28;20204;-65
2022/09/27 08:08:02;;;;;;;21.58;19.55;;;;;;;15.99;84.15;93818.81;4967026;28;20305;-65
2022/09/27 08:10:30;;;;;;;23.30;21.05;;;;;;;16.09;85.75;93814.66;4960352;28;20185;-66
2022/09/27 08:12:57;;;;;;;22.70;20.55;;;;;;;16.26;85.68;93825.56;4966091;28;20197;-65
2022/09/27 08:15:23;;;;;;;22.38;20.33;;;;;;;16.33;84.52;93814.88;4965376;28;20276;-65
2022/09/27 08:17:49;;;;;;;21.45;19.55;;;;;;;16.43;84.17;93809.09;4964751;28;20348;-65
2022/09/27 08:20:15;;;;;;;22.17;20.23;;;;;;;16.54;84.96;93824.31;4966616;28;20208;-66
2022/09/27 08:22:41;;;;;;;21.10;19.30;;;;;;;16.27;85.06;93818.41;4959331;28;20423;-66
2022/09/27 08:25:07;;;;;;;20.90;19.10;;;;;;;16.41;84.83;93851.78;4947478;28;20276;-67
2022/09/27 08:27:33;;;;;;;21.10;19.20;;;;;;;16.38;84.07;93859.34;4962182;28;20263;-64
2022/09/27 08:29:59;;;;;;;22.40;20.40;;;;;;;16.28;85.11;93844.72;4962756;28;20184;-66
2022/09/27 08:32:25;;;;;;;23.45;21.23;;;;;;;16.37;84.67;93831.19;4967710;28;20192;-64
2022/09/27 08:34:50;;;;;;;24.23;21.92;;;;;;;16.42;84.71;93831.38;4969093;28;20215;-65
2022/09/27 08:37:16;;;;;;;24.48;22.38;;;;;;;16.66;83.43;93809.31;4965174;28;20208;-63
2022/09/27 08:39:41;;;;;;;23.55;21.45;;;;;;;16.76;82.89;93793.69;4964059;28;20192;-64
2022/09/27 08:42:35;;;;;;;23.35;21.33;;;;;;;16.85;83.54;93810.16;4970678;28;20234;-64
2022/09/27 08:45:10;;;;;;;25.02;22.73;;;;;;;16.90;83.00;93810.31;4959458;28;20187;-65
2022/09/27 08:47:51;;;;;;;25.02;22.83;;;;;;;16.57;83.65;93794.66;4962137;28;20266;-65
2022/09/27 08:50:29;;;;;;;25.15;22.95;;;;;;;16.71;84.30;93813.97;4960530;28;20184;-64
2022/09/27 08:53:13;;;;;;;24.55;22.33;;;;;;;16.91;82.97;93813.78;4960436;28;20192;-65
2022/09/27 08:55:49;;;;;;;24.80;22.70;;;;;;;16.78;82.61;93819.22;4957149;28;20211;-68
2022/09/27 08:58:32;;;;;;;24.92;22.92;;;;;;;16.76;83.05;93806.97;4962360;28;20192;-69
2022/09/27 09:01:03;;;;;;;26.77;24.38;;;;;;;16.91;82.68;93816.44;4978401;28;20205;-66
2022/09/27 09:03:32;;;;;;;26.92;24.63;;;;;;;17.13;81.87;93804.38;4964427;28;20287;-68
2022/09/27 09:06:07;;;;;;;24.70;22.40;;;;;;;17.55;79.80;93798.34;4964088;28;20197;-66
2022/09/27 09:08:44;;;;;;;23.23;21.23;;;;;;;17.63;79.22;93792.72;4965752;28;20228;-67
2022/09/27 09:14:24;;;;;;;24.23;22.10;;;;;;;18.04;77.75;93786.66;4961687;28;20244;-67
2022/09/27 09:16:55;;;;;;;23.58;21.70;;;;;;;18.13;77.76;93796.97;4957344;28;20183;-64
2022/09/27 09:19:45;;;;;;;22.80;20.90;;;;;;;17.94;76.60;93786.38;4972967;28;20195;-64
2022/09/27 09:22:28;;;;;;;24.52;22.23;;;;;;;17.53;79.03;93800.41;4963132;28;20184;-65
2022/09/27 09:25:22;;;;;;;23.23;21.17;;;;;;;17.57;79.53;93805.06;4963447;28;20196;-67
2022/09/27 09:27:48;;;;;;;22.52;20.63;;;;;;;17.74;79.04;93793.78;4949862;28;20196;-66
2022/09/27 09:30:24;;;;;;;22.10;20.25;;;;;;;18.08;79.05;93792.31;4958645;28;20188;-67
2022/09/27 09:33:26;;;;;;;19.13;17.52;;;;;;;18.21;78.19;93796.63;4961040;28;20191;-67
2022/09/27 09:36:00;;;;;;;19.05;17.45;;;;;;;18.39;77.41;93790.38;4909411;29;20268;-67
2022/09/27 09:38:46;;;;;;;19.52;17.50;;;;;;;18.42;78.01;93764.13;4901351;29;20205;-66
2022/09/27 09:41:20;;;;;;;17.08;15.55;;;;;;;18.45;76.78;93774.31;4911653;29;20216;-67
2022/09/27 09:43:54;;;;;;;16.45;15.10;;;;;;;18.39;77.09;93788.56;4922407;29;20198;-67
2022/09/27 09:46:41;;;;;;;15.57;14.38;;;;;;;18.40;76.97;93794.69;4915506;29;20193;-67
2022/09/27 09:49:44;;;;;;;15.70;14.40;;;;;;;18.33;76.73;93792.13;4918319;29;20189;-66
2022/09/27 09:52:18;;;;;;;14.35;13.13;;;;;;;17.67;78.68;93799.22;4890343;29;20298;-68
2022/09/27 09:55:05;;;;;;;16.17;14.40;;;;;;;17.86;77.67;93781.38;4890947;29;20222;-67
2022/09/27 09:57:42;;;;;;;16.77;15.25;;;;;;;17.95;78.72;93780.00;4873733;29;20206;-67
2022/09/27 10:00:16;;;;;;;17.20;15.55;;;;;;;18.20;78.27;93787.84;4887624;29;20203;-66
2022/09/27 10:02:46;;;;;;;17.35;15.85;;;;;;;18.36;77.79;93794.31;4892750;29;20199;-66
2022/09/27 10:05:24;;;;;;;19.42;17.75;;;;;;;18.71;76.71;93777.56;4874660;29;20214;-66
2022/09/27 10:07:53;;;;;;;19.77;18.00;;;;;;;18.69;76.86;93763.69;4877986;29;20223;-67
2022/09/27 10:10:20;;;;;;;17.63;16.13;;;;;;;18.41;76.73;93770.50;4887948;29;20196;-67
2022/09/27 10:12:46;;;;;;;16.23;14.77;;;;;;;18.41;77.91;93778.47;4900301;29;20182;-67
2022/09/27 10:15:23;;;;;;;16.83;15.27;;;;;;;18.58;77.58;93788.44;4911995;29;20203;-67
2022/09/27 10:17:58;;;;;;;18.80;17.20;;;;;;;18.64;77.43;93772.34;4914920;29;20185;-68
2022/09/27 10:20:41;;;;;;;17.58;16.15;;;;;;;18.70;77.61;93765.28;4899775;29;20304;-70
2022/09/27 10:23:19;;;;;;;18.65;16.75;;;;;;;18.77;77.59;93749.25;4912598;29;20202;-65
2022/09/27 10:26:07;;;;;;;17.02;15.50;;;;;;;19.05;77.10;93745.81;4920451;29;20282;-64
2022/09/27 10:28:41;;;;;;;15.27;13.98;;;;;;;19.17;75.46;93774.06;4938468;28;20406;-65
2022/09/27 10:31:10;;;;;;;16.92;15.40;;;;;;;18.99;75.79;93746.78;4975898;28;20559;-65
2022/09/27 10:33:51;;;;;;;15.35;14.15;;;;;;;18.75;76.01;93760.13;4971182;28;20189;-65
2022/09/27 10:36:32;;;;;;;15.90;14.60;;;;;;;18.73;76.70;93764.81;4965670;28;20218;-65
2022/09/27 10:39:01;;;;;;;15.45;14.15;;;;;;;18.85;75.75;93767.53;4965142;28;20246;-64
2022/09/27 10:41:36;;;;;;;16.25;14.82;;;;;;;19.18;74.58;93758.88;4969185;28;20207;-64
2022/09/27 10:44:14;;;;;;;15.95;14.52;;;;;;;19.81;72.07;93779.34;4974301;28;20190;-63
2022/09/27 10:46:41;;;;;;;15.48;14.18;;;;;;;20.10;70.37;93757.97;4973793;28;20219;-65
2022/09/27 10:49:28;;;;;;;16.13;14.63;;;;;;;20.15;70.83;93755.38;4974656;28;20198;-64
2022/09/27 10:52:00;;;;;;;15.93;14.52;;;;;;;20.32;71.11;93722.56;4966885;28;20271;-64
2022/09/27 10:54:28;;;;;;;15.10;13.98;;;;;;;20.46;72.36;93707.81;4971944;28;20185;-64
2022/09/27 10:56:56;;;;;;;16.60;15.23;;;;;;;20.42;73.24;93701.31;4976495;28;20180;-65
2022/09/27 10:59:23;;;;;;;15.35;14.05;;;;;;;19.85;73.15;93723.66;4975417;28;20173;-65
2022/09/27 11:01:49;;;;;;;14.88;13.43;;;;;;;20.04;72.20;93717.03;4976725;28;20362;-62
2022/09/27 11:04:33;;;;;;;15.48;14.07;;;;;;;20.08;70.78;93706.69;4970203;28;20242;-62
2022/09/27 11:07:18;;;;;;;14.70;12.98;;;;;;;20.34;69.70;93715.09;4972662;28;20230;-63
2022/09/27 11:10:01;;;;;;;13.40;12.30;;;;;;;19.78;70.56;93713.16;4984831;28;20187;-62
2022/09/27 11:12:29;;;;;;;14.45;13.32;;;;;;;19.64;72.42;93719.78;4956507;28;20191;-64
2022/09/27 11:15:01;;;;;;;14.35;13.25;;;;;;;19.93;71.10;93720.59;4974035;28;20211;-65
2022/09/27 11:17:32;;;;;;;13.75;12.75;;;;;;;20.03;69.80;93706.63;4983979;28;20234;-63
2022/09/27 11:20:14;;;;;;;14.30;12.98;;;;;;;19.79;71.06;93705.94;4968951;28;20194;-65
2022/09/27 11:22:54;;;;;;;13.45;12.30;;;;;;;20.05;71.03;93697.31;4964096;28;20283;-64
2022/09/27 11:25:20;;;;;;;12.95;11.95;;;;;;;20.46;70.30;93695.25;4986357;28;20215;-63
2022/09/27 11:28:19;;;;;;;12.10;11.20;;;;;;;20.31;69.99;93689.69;4969472;28;20188;-64
2022/09/27 11:31:02;;;;;;;13.30;12.10;;;;;;;20.86;69.61;93696.09;4965389;28;20191;-65
2022/09/27 11:33:59;;;;;;;17.73;11.75;;;;;;;20.88;68.61;93684.13;4966934;28;20198;-64
2022/09/27 11:36:41;;;;;;;13.02;11.73;;;;;;;21.24;68.48;93689.88;4989929;28;20313;-64
2022/09/27 11:39:38;;;;;;;12.00;10.90;;;;;;;21.66;67.31;93689.28;4971767;28;20216;-64
2022/09/27 11:42:10;;;;;;;12.48;11.35;;;;;;;21.90;65.58;93657.66;4972031;28;20282;-64
2022/09/27 11:45:09;;;;;;;10.93;10.02;;;;;;;22.14;65.59;93651.97;4965894;28;20180;-64
2022/09/27 11:48:12;;;;;;;10.10;9.10;;;;;;;22.25;63.51;93659.03;4964406;28;20191;-65